Snoqualmie River: Snoqualmie Falls station

back to: Snoqualmie river
Snoqualmie Falls station Summary - (NOAA Hydrograph: SQUW1)
flood stage: 12.88 ft
Latest reading:
Mon08/19 11:25 am 2.75 ft 466 cfs (steady)
Past 24hr max:
Mon08/19 06:05 am 2.82 ft 491 cfs
Forecasted crests: (published Mon 08/19/19 08:57 am)
Wed08/21 11:00 pm 3.1 ft 601 cfs

Snoqualmie Falls station Details

Latest Readings

Last 100 Readings:
Mon08/19 11:25 am 2.75 ft 466 cfs
Mon08/19 11:20 am 2.75 ft 466 cfs
Mon08/19 11:15 am 2.75 ft 466 cfs
Mon08/19 11:10 am 2.75 ft 466 cfs
Mon08/19 11:05 am 2.76 ft 470 cfs
Mon08/19 11:00 am 2.76 ft 470 cfs
Mon08/19 10:55 am 2.76 ft 470 cfs
Mon08/19 10:50 am 2.76 ft 470 cfs
Mon08/19 10:45 am 2.77 ft 473 cfs
Mon08/19 10:40 am 2.77 ft 473 cfs
Mon08/19 10:35 am 2.76 ft 470 cfs
Mon08/19 10:30 am 2.77 ft 473 cfs
Mon08/19 10:25 am 2.77 ft 473 cfs
Mon08/19 10:20 am 2.77 ft 473 cfs
Mon08/19 10:15 am 2.77 ft 473 cfs
Mon08/19 10:10 am 2.77 ft 473 cfs
Mon08/19 10:05 am 2.77 ft 473 cfs
Mon08/19 10:00 am 2.78 ft 477 cfs
Mon08/19 09:55 am 2.77 ft 473 cfs
Mon08/19 09:50 am 2.77 ft 473 cfs
Mon08/19 09:45 am 2.77 ft 473 cfs
Mon08/19 09:40 am 2.76 ft 470 cfs
Mon08/19 09:35 am 2.76 ft 470 cfs
Mon08/19 09:30 am 2.76 ft 470 cfs
Mon08/19 09:25 am 2.75 ft 466 cfs
Mon08/19 09:20 am 2.75 ft 466 cfs
Mon08/19 09:15 am 2.74 ft 463 cfs
Mon08/19 09:10 am 2.74 ft 463 cfs
Mon08/19 09:05 am 2.74 ft 463 cfs
Mon08/19 09:00 am 2.73 ft 459 cfs
Mon08/19 08:55 am 2.73 ft 459 cfs
Mon08/19 08:50 am 2.73 ft 459 cfs
Mon08/19 08:45 am 2.73 ft 459 cfs
Mon08/19 08:40 am 2.74 ft 463 cfs
Mon08/19 08:35 am 2.73 ft 459 cfs
Mon08/19 08:30 am 2.74 ft 463 cfs
Mon08/19 08:25 am 2.74 ft 463 cfs
Mon08/19 08:20 am 2.73 ft 459 cfs
Mon08/19 08:15 am 2.74 ft 463 cfs
Mon08/19 08:10 am 2.74 ft 463 cfs
Mon08/19 08:05 am 2.75 ft 466 cfs
Mon08/19 08:00 am 2.75 ft 466 cfs
Mon08/19 07:55 am 2.75 ft 466 cfs
Mon08/19 07:50 am 2.76 ft 470 cfs
Mon08/19 07:45 am 2.76 ft 470 cfs
Mon08/19 07:40 am 2.77 ft 473 cfs
Mon08/19 07:35 am 2.77 ft 473 cfs
Mon08/19 07:30 am 2.78 ft 477 cfs
Mon08/19 07:25 am 2.79 ft 480 cfs
Mon08/19 07:20 am 2.79 ft 480 cfs
Mon08/19 07:15 am 2.8 ft 484 cfs
Mon08/19 07:10 am 2.8 ft 484 cfs
Mon08/19 07:05 am 2.81 ft 488 cfs
Mon08/19 07:00 am 2.81 ft 488 cfs
Mon08/19 06:55 am 2.81 ft 488 cfs
Mon08/19 06:50 am 2.81 ft 488 cfs
Mon08/19 06:45 am 2.81 ft 488 cfs
Mon08/19 06:40 am 2.81 ft 488 cfs
Mon08/19 06:35 am 2.82 ft 491 cfs
Mon08/19 06:30 am 2.82 ft 491 cfs
Mon08/19 06:25 am 2.82 ft 491 cfs
Mon08/19 06:20 am 2.82 ft 491 cfs
Mon08/19 06:15 am 2.82 ft 491 cfs
Mon08/19 06:10 am 2.82 ft 491 cfs
Mon08/19 06:05 am 2.82 ft 491 cfs
Mon08/19 06:00 am 2.8 ft 484 cfs
Mon08/19 05:55 am 2.79 ft 480 cfs
Mon08/19 05:50 am 2.78 ft 477 cfs
Mon08/19 05:45 am 2.78 ft 477 cfs
Mon08/19 05:40 am 2.79 ft 480 cfs
Mon08/19 05:35 am 2.79 ft 480 cfs
Mon08/19 05:30 am 2.79 ft 480 cfs
Mon08/19 05:25 am 2.79 ft 480 cfs
Mon08/19 05:20 am 2.8 ft 484 cfs
Mon08/19 05:15 am 2.8 ft 484 cfs
Mon08/19 05:10 am 2.8 ft 484 cfs
Mon08/19 05:05 am 2.8 ft 484 cfs
Mon08/19 05:00 am 2.8 ft 484 cfs
Mon08/19 04:55 am 2.8 ft 484 cfs
Mon08/19 04:50 am 2.81 ft 488 cfs
Mon08/19 04:45 am 2.81 ft 488 cfs
Mon08/19 04:40 am 2.81 ft 488 cfs
Mon08/19 04:35 am 2.81 ft 488 cfs
Mon08/19 04:30 am 2.81 ft 488 cfs
Mon08/19 04:25 am 2.8 ft 484 cfs
Mon08/19 04:20 am 2.8 ft 484 cfs
Mon08/19 04:15 am 2.81 ft 488 cfs
Mon08/19 04:10 am 2.8 ft 484 cfs
Mon08/19 04:05 am 2.81 ft 488 cfs
Mon08/19 04:00 am 2.81 ft 488 cfs
Mon08/19 03:55 am 2.81 ft 488 cfs
Mon08/19 03:50 am 2.81 ft 488 cfs
Mon08/19 03:45 am 2.81 ft 488 cfs
Mon08/19 03:40 am 2.8 ft 484 cfs
Mon08/19 03:35 am 2.81 ft 488 cfs
Mon08/19 03:30 am 2.8 ft 484 cfs
Mon08/19 03:25 am 2.81 ft 488 cfs
Mon08/19 03:20 am 2.8 ft 484 cfs
Mon08/19 03:15 am 2.81 ft 488 cfs
Mon08/19 03:10 am 2.81 ft 488 cfs

Latest Forecasts

Currently Forecasted Readings:
Mon08/19 11:00 am 2.78 ft 476 cfs
Mon08/19 05:00 pm 2.76 ft 471 cfs
Mon08/19 11:00 pm 2.75 ft 467 cfs
Tue08/20 05:00 am 2.74 ft 462 cfs
Tue08/20 11:00 am 2.73 ft 458 cfs
Tue08/20 05:00 pm 2.72 ft 454 cfs
Tue08/20 11:00 pm 2.71 ft 450 cfs
Wed08/21 05:00 am 2.69 ft 446 cfs
Wed08/21 11:00 am 2.73 ft 460 cfs
Wed08/21 05:00 pm 2.96 ft 545 cfs
Wed08/21 11:00 pm 3.1 ft 601 cfs
Thu08/22 05:00 am 3.02 ft 568 cfs
Thu08/22 11:00 am 2.9 ft 521 cfs
Thu08/22 05:00 pm 2.77 ft 474 cfs
Thu08/22 11:00 pm 2.7 ft 448 cfs
Fri08/23 05:00 am 2.67 ft 438 cfs
Fri08/23 11:00 am 2.65 ft 432 cfs
Fri08/23 05:00 pm 2.64 ft 427 cfs
Fri08/23 11:00 pm 2.62 ft 422 cfs
Sat08/24 05:00 am 2.61 ft 417 cfs
Sat08/24 11:00 am 2.59 ft 412 cfs
Sat08/24 05:00 pm 2.58 ft 407 cfs
Sat08/24 11:00 pm 2.56 ft 402 cfs
Sun08/25 05:00 am 2.55 ft 397 cfs
Sun08/25 11:00 am 2.54 ft 393 cfs
Sun08/25 05:00 pm 2.53 ft 390 cfs
Sun08/25 11:00 pm 2.52 ft 388 cfs
Mon08/26 05:00 am 2.52 ft 386 cfs
Mon08/26 11:00 am 2.51 ft 384 cfs
Mon08/26 05:00 pm 2.5 ft 382 cfs
Mon08/26 11:00 pm 2.5 ft 380 cfs
Tue08/27 05:00 am 2.49 ft 379 cfs
Tue08/27 11:00 am 2.49 ft 378 cfs
Tue08/27 05:00 pm 2.48 ft 376 cfs
Tue08/27 11:00 pm 2.48 ft 374 cfs
Wed08/28 05:00 am 2.47 ft 372 cfs
Wed08/28 11:00 am 2.47 ft 371 cfs
Wed08/28 05:00 pm 2.46 ft 369 cfs
Wed08/28 11:00 pm 2.46 ft 367 cfs
Thu08/29 05:00 am 2.47 ft 373 cfs

Snoqualmie River flood gauge data supplied by the
National Weather Service Northwest River Forecast Center.

Sign up for Floodzilla alerts.